sensor_id;sensor_type;location;lat;lon;timestamp;P1;durP1;ratioP1;P2;durP2;ratioP2
10056;SDS011;5068;51.286;7.518;2022-07-21T00:00:16;5.63;;;5.13;;
10056;SDS011;5068;51.286;7.518;2022-07-21T00:01:52;7.07;;;5.90;;
10056;SDS011;5068;51.286;7.518;2022-07-21T00:03:27;6.10;;;5.35;;
10056;SDS011;5068;51.286;7.518;2022-07-21T00:05:03;6.00;;;5.38;;
10056;SDS011;5068;51.286;7.518;2022-07-21T00:06:38;5.57;;;5.10;;
10056;SDS011;5068;51.286;7.518;2022-07-21T00:08:11;6.03;;;5.43;;
10056;SDS011;5068;51.286;7.518;2022-07-21T00:09:45;5.57;;;5.07;;
10056;SDS011;5068;51.286;7.518;2022-07-21T00:11:19;5.93;;;4.60;;
10056;SDS011;5068;51.286;7.518;2022-07-21T00:12:53;5.97;;;4.85;;
10056;SDS011;5068;51.286;7.518;2022-07-21T00:14:28;5.80;;;5.30;;
10056;SDS011;5068;51.286;7.518;2022-07-21T00:16:01;5.57;;;5.07;;
10056;SDS011;5068;51.286;7.518;2022-07-21T00:17:36;5.18;;;4.68;;
10056;SDS011;5068;51.286;7.518;2022-07-21T00:19:09;4.80;;;4.43;;
10056;SDS011;5068;51.286;7.518;2022-07-21T00:20:45;5.18;;;4.57;;
10056;SDS011;5068;51.286;7.518;2022-07-21T00:22:19;5.50;;;5.00;;
10056;SDS011;5068;51.286;7.518;2022-07-21T00:23:52;5.72;;;5.20;;
10056;SDS011;5068;51.286;7.518;2022-07-21T00:25:26;5.45;;;4.95;;
10056;SDS011;5068;51.286;7.518;2022-07-21T00:27:05;5.10;;;4.57;;
10056;SDS011;5068;51.286;7.518;2022-07-21T00:28:38;5.38;;;4.88;;
10056;SDS011;5068;51.286;7.518;2022-07-21T00:30:12;5.65;;;5.00;;
10056;SDS011;5068;51.286;7.518;2022-07-21T00:31:47;5.45;;;4.88;;
10056;SDS011;5068;51.286;7.518;2022-07-21T00:33:21;5.78;;;5.13;;
10056;SDS011;5068;51.286;7.518;2022-07-21T00:34:54;5.82;;;5.32;;
10056;SDS011;5068;51.286;7.518;2022-07-21T00:36:28;5.97;;;5.45;;
10056;SDS011;5068;51.286;7.518;2022-07-21T00:38:02;5.53;;;5.10;;
10056;SDS011;5068;51.286;7.518;2022-07-21T00:39:34;5.45;;;4.93;;
10056;SDS011;5068;51.286;7.518;2022-07-21T00:41:08;6.57;;;5.13;;
10056;SDS011;5068;51.286;7.518;2022-07-21T00:42:42;5.90;;;5.40;;
10056;SDS011;5068;51.286;7.518;2022-07-21T00:44:20;5.75;;;5.20;;
10056;SDS011;5068;51.286;7.518;2022-07-21T00:45:55;6.10;;;5.60;;
10056;SDS011;5068;51.286;7.518;2022-07-21T00:47:29;5.35;;;4.95;;
10056;SDS011;5068;51.286;7.518;2022-07-21T00:49:04;5.10;;;4.70;;
10056;SDS011;5068;51.286;7.518;2022-07-21T00:50:37;5.85;;;5.28;;
10056;SDS011;5068;51.286;7.518;2022-07-21T00:52:13;5.70;;;5.20;;
10056;SDS011;5068;51.286;7.518;2022-07-21T00:53:46;5.57;;;5.10;;
10056;SDS011;5068;51.286;7.518;2022-07-21T00:55:19;5.18;;;4.78;;
10056;SDS011;5068;51.286;7.518;2022-07-21T00:56:54;5.95;;;5.45;;
10056;SDS011;5068;51.286;7.518;2022-07-21T00:58:27;5.28;;;4.88;;
10056;SDS011;5068;51.286;7.518;2022-07-21T01:00:02;5.45;;;4.95;;
10056;SDS011;5068;51.286;7.518;2022-07-21T01:01:40;6.03;;;5.45;;
10056;SDS011;5068;51.286;7.518;2022-07-21T01:03:21;5.47;;;4.97;;
10056;SDS011;5068;51.286;7.518;2022-07-21T01:04:56;5.97;;;5.38;;
10056;SDS011;5068;51.286;7.518;2022-07-21T01:06:31;5.47;;;5.07;;
10056;SDS011;5068;51.286;7.518;2022-07-21T01:08:06;6.18;;;5.45;;
10056;SDS011;5068;51.286;7.518;2022-07-21T01:09:41;6.28;;;5.68;;
10056;SDS011;5068;51.286;7.518;2022-07-21T01:11:16;6.28;;;5.68;;
10056;SDS011;5068;51.286;7.518;2022-07-21T01:12:51;7.63;;;5.53;;
10056;SDS011;5068;51.286;7.518;2022-07-21T01:14:25;6.18;;;5.63;;
10056;SDS011;5068;51.286;7.518;2022-07-21T01:16:00;5.82;;;5.40;;
10056;SDS011;5068;51.286;7.518;2022-07-21T01:17:34;6.20;;;5.70;;
10056;SDS011;5068;51.286;7.518;2022-07-21T01:19:12;6.32;;;5.72;;
10056;SDS011;5068;51.286;7.518;2022-07-21T01:20:51;5.60;;;5.10;;
10056;SDS011;5068;51.286;7.518;2022-07-21T01:22:28;5.68;;;5.15;;
10056;SDS011;5068;51.286;7.518;2022-07-21T01:24:02;7.10;;;5.80;;
10056;SDS011;5068;51.286;7.518;2022-07-21T01:25:37;6.15;;;5.55;;
10056;SDS011;5068;51.286;7.518;2022-07-21T01:27:11;5.80;;;5.28;;
10056;SDS011;5068;51.286;7.518;2022-07-21T01:28:44;7.32;;;5.75;;
10056;SDS011;5068;51.286;7.518;2022-07-21T01:30:18;6.00;;;5.40;;
10056;SDS011;5068;51.286;7.518;2022-07-21T01:31:52;5.85;;;5.35;;
10056;SDS011;5068;51.286;7.518;2022-07-21T01:33:25;6.05;;;5.55;;
10056;SDS011;5068;51.286;7.518;2022-07-21T01:34:59;6.97;;;5.93;;
10056;SDS011;5068;51.286;7.518;2022-07-21T01:36:32;7.72;;;6.03;;
10056;SDS011;5068;51.286;7.518;2022-07-21T01:38:07;6.00;;;5.40;;
10056;SDS011;5068;51.286;7.518;2022-07-21T01:40:01;6.05;;;5.43;;
10056;SDS011;5068;51.286;7.518;2022-07-21T01:41:53;6.10;;;5.55;;
10056;SDS011;5068;51.286;7.518;2022-07-21T01:43:26;5.68;;;5.07;;
10056;SDS011;5068;51.286;7.518;2022-07-21T01:45:00;5.95;;;5.43;;
10056;SDS011;5068;51.286;7.518;2022-07-21T01:46:36;5.53;;;5.05;;
10056;SDS011;5068;51.286;7.518;2022-07-21T01:48:15;6.60;;;5.35;;
10056;SDS011;5068;51.286;7.518;2022-07-21T01:49:48;5.63;;;5.05;;
10056;SDS011;5068;51.286;7.518;2022-07-21T01:51:22;5.07;;;4.63;;
10056;SDS011;5068;51.286;7.518;2022-07-21T01:52:55;6.15;;;5.20;;
10056;SDS011;5068;51.286;7.518;2022-07-21T01:54:30;4.72;;;4.32;;
10056;SDS011;5068;51.286;7.518;2022-07-21T01:56:04;7.45;;;5.20;;
10056;SDS011;5068;51.286;7.518;2022-07-21T01:57:39;5.38;;;4.35;;
10056;SDS011;5068;51.286;7.518;2022-07-21T01:59:13;5.20;;;4.70;;
10056;SDS011;5068;51.286;7.518;2022-07-21T02:00:47;5.05;;;4.60;;
10056;SDS011;5068;51.286;7.518;2022-07-21T02:02:26;5.22;;;4.82;;
10056;SDS011;5068;51.286;7.518;2022-07-21T02:04:02;4.43;;;4.03;;
10056;SDS011;5068;51.286;7.518;2022-07-21T02:05:38;5.47;;;4.47;;
10056;SDS011;5068;51.286;7.518;2022-07-21T02:07:11;5.82;;;4.55;;
10056;SDS011;5068;51.286;7.518;2022-07-21T02:08:45;7.35;;;4.60;;
10056;SDS011;5068;51.286;7.518;2022-07-21T02:10:20;5.95;;;4.82;;
10056;SDS011;5068;51.286;7.518;2022-07-21T02:11:54;4.80;;;4.40;;
10056;SDS011;5068;51.286;7.518;2022-07-21T02:13:28;6.13;;;4.35;;
10056;SDS011;5068;51.286;7.518;2022-07-21T02:15:01;5.95;;;4.82;;
10056;SDS011;5068;51.286;7.518;2022-07-21T02:16:36;4.65;;;4.25;;
10056;SDS011;5068;51.286;7.518;2022-07-21T02:18:09;4.82;;;4.43;;
10056;SDS011;5068;51.286;7.518;2022-07-21T02:19:43;7.05;;;4.75;;
10056;SDS011;5068;51.286;7.518;2022-07-21T02:21:16;6.25;;;4.80;;
10056;SDS011;5068;51.286;7.518;2022-07-21T02:22:51;5.72;;;5.00;;
10056;SDS011;5068;51.286;7.518;2022-07-21T02:24:25;4.65;;;4.10;;
10056;SDS011;5068;51.286;7.518;2022-07-21T02:26:00;4.20;;;3.80;;
10056;SDS011;5068;51.286;7.518;2022-07-21T02:27:34;4.57;;;4.18;;
10056;SDS011;5068;51.286;7.518;2022-07-21T02:29:08;4.72;;;4.32;;
10056;SDS011;5068;51.286;7.518;2022-07-21T02:30:41;4.82;;;4.15;;
10056;SDS011;5068;51.286;7.518;2022-07-21T02:32:15;4.43;;;4.03;;
10056;SDS011;5068;51.286;7.518;2022-07-21T02:33:48;4.97;;;3.97;;
10056;SDS011;5068;51.286;7.518;2022-07-21T02:35:22;4.03;;;3.63;;
10056;SDS011;5068;51.286;7.518;2022-07-21T02:36:56;3.95;;;3.65;;
10056;SDS011;5068;51.286;7.518;2022-07-21T02:38:29;4.03;;;3.72;;
10056;SDS011;5068;51.286;7.518;2022-07-21T02:40:03;4.57;;;4.18;;
10056;SDS011;5068;51.286;7.518;2022-07-21T02:41:39;5.25;;;4.20;;
10056;SDS011;5068;51.286;7.518;2022-07-21T02:43:13;4.25;;;3.55;;
10056;SDS011;5068;51.286;7.518;2022-07-21T02:44:45;3.83;;;3.53;;
10056;SDS011;5068;51.286;7.518;2022-07-21T02:46:19;4.32;;;3.92;;
10056;SDS011;5068;51.286;7.518;2022-07-21T02:47:53;4.40;;;4.00;;
10056;SDS011;5068;51.286;7.518;2022-07-21T02:49:28;4.20;;;3.78;;
10056;SDS011;5068;51.286;7.518;2022-07-21T02:51:02;4.78;;;4.10;;
10056;SDS011;5068;51.286;7.518;2022-07-21T02:52:39;5.47;;;4.10;;
10056;SDS011;5068;51.286;7.518;2022-07-21T02:54:14;4.32;;;3.92;;
10056;SDS011;5068;51.286;7.518;2022-07-21T02:55:49;4.30;;;3.90;;
10056;SDS011;5068;51.286;7.518;2022-07-21T02:57:25;4.15;;;3.75;;
10056;SDS011;5068;51.286;7.518;2022-07-21T02:58:59;4.07;;;3.78;;
10056;SDS011;5068;51.286;7.518;2022-07-21T03:00:32;4.07;;;3.67;;
10056;SDS011;5068;51.286;7.518;2022-07-21T03:02:06;4.03;;;3.72;;
10056;SDS011;5068;51.286;7.518;2022-07-21T03:03:40;4.05;;;3.75;;
10056;SDS011;5068;51.286;7.518;2022-07-21T03:05:14;4.88;;;3.92;;
10056;SDS011;5068;51.286;7.518;2022-07-21T03:06:46;6.20;;;3.63;;
10056;SDS011;5068;51.286;7.518;2022-07-21T03:08:20;4.10;;;3.70;;
10056;SDS011;5068;51.286;7.518;2022-07-21T03:09:53;4.05;;;3.75;;
10056;SDS011;5068;51.286;7.518;2022-07-21T03:11:27;4.72;;;4.32;;
10056;SDS011;5068;51.286;7.518;2022-07-21T03:13:02;4.30;;;3.90;;
10056;SDS011;5068;51.286;7.518;2022-07-21T03:14:36;6.68;;;4.75;;
10056;SDS011;5068;51.286;7.518;2022-07-21T03:16:09;5.00;;;3.80;;
10056;SDS011;5068;51.286;7.518;2022-07-21T03:17:43;4.20;;;3.80;;
10056;SDS011;5068;51.286;7.518;2022-07-21T03:19:17;4.70;;;3.80;;
10056;SDS011;5068;51.286;7.518;2022-07-21T03:20:50;4.97;;;4.38;;
10056;SDS011;5068;51.286;7.518;2022-07-21T03:22:23;3.80;;;3.50;;
10056;SDS011;5068;51.286;7.518;2022-07-21T03:23:56;4.05;;;3.33;;
10056;SDS011;5068;51.286;7.518;2022-07-21T03:25:30;5.72;;;3.70;;
10056;SDS011;5068;51.286;7.518;2022-07-21T03:27:03;3.88;;;3.47;;
10056;SDS011;5068;51.286;7.518;2022-07-21T03:28:40;4.75;;;3.80;;
10056;SDS011;5068;51.286;7.518;2022-07-21T03:30:14;4.10;;;3.70;;
10056;SDS011;5068;51.286;7.518;2022-07-21T03:31:48;4.03;;;3.70;;
10056;SDS011;5068;51.286;7.518;2022-07-21T03:33:22;4.00;;;3.67;;
10056;SDS011;5068;51.286;7.518;2022-07-21T03:34:56;6.72;;;4.10;;
10056;SDS011;5068;51.286;7.518;2022-07-21T03:36:29;4.25;;;3.88;;
10056;SDS011;5068;51.286;7.518;2022-07-21T03:38:03;3.80;;;3.50;;
10056;SDS011;5068;51.286;7.518;2022-07-21T03:39:38;4.05;;;3.30;;
10056;SDS011;5068;51.286;7.518;2022-07-21T03:41:10;3.72;;;3.42;;
10056;SDS011;5068;51.286;7.518;2022-07-21T03:42:44;4.80;;;4.03;;
10056;SDS011;5068;51.286;7.518;2022-07-21T03:44:18;3.63;;;3.33;;
10056;SDS011;5068;51.286;7.518;2022-07-21T03:45:52;3.85;;;3.50;;
10056;SDS011;5068;51.286;7.518;2022-07-21T03:47:25;4.38;;;4.05;;
10056;SDS011;5068;51.286;7.518;2022-07-21T03:48:58;3.65;;;3.35;;
10056;SDS011;5068;51.286;7.518;2022-07-21T03:50:33;3.45;;;3.15;;
10056;SDS011;5068;51.286;7.518;2022-07-21T03:52:08;3.70;;;3.30;;
10056;SDS011;5068;51.286;7.518;2022-07-21T03:53:41;6.22;;;3.20;;
10056;SDS011;5068;51.286;7.518;2022-07-21T03:55:15;5.63;;;3.63;;
10056;SDS011;5068;51.286;7.518;2022-07-21T03:56:50;3.97;;;3.55;;
10056;SDS011;5068;51.286;7.518;2022-07-21T03:58:23;4.28;;;3.85;;
10056;SDS011;5068;51.286;7.518;2022-07-21T03:59:58;4.20;;;3.80;;
10056;SDS011;5068;51.286;7.518;2022-07-21T04:01:55;4.88;;;4.00;;
10056;SDS011;5068;51.286;7.518;2022-07-21T04:03:29;4.10;;;3.70;;
10056;SDS011;5068;51.286;7.518;2022-07-21T04:05:05;3.70;;;3.30;;
10056;SDS011;5068;51.286;7.518;2022-07-21T04:06:38;4.68;;;3.28;;
10056;SDS011;5068;51.286;7.518;2022-07-21T04:08:12;4.47;;;3.90;;
10056;SDS011;5068;51.286;7.518;2022-07-21T04:09:46;4.07;;;3.78;;
10056;SDS011;5068;51.286;7.518;2022-07-21T04:11:18;3.97;;;3.67;;
10056;SDS011;5068;51.286;7.518;2022-07-21T04:12:52;4.00;;;3.70;;
10056;SDS011;5068;51.286;7.518;2022-07-21T04:14:27;3.90;;;3.60;;
10056;SDS011;5068;51.286;7.518;2022-07-21T04:16:03;3.95;;;3.65;;
10056;SDS011;5068;51.286;7.518;2022-07-21T04:17:39;4.18;;;3.88;;
10056;SDS011;5068;51.286;7.518;2022-07-21T04:19:13;3.95;;;3.65;;
10056;SDS011;5068;51.286;7.518;2022-07-21T04:20:47;4.18;;;3.78;;
10056;SDS011;5068;51.286;7.518;2022-07-21T04:22:20;4.60;;;4.20;;
10056;SDS011;5068;51.286;7.518;2022-07-21T04:23:54;4.20;;;3.85;;
10056;SDS011;5068;51.286;7.518;2022-07-21T04:25:27;4.30;;;3.90;;
10056;SDS011;5068;51.286;7.518;2022-07-21T04:27:01;4.05;;;3.75;;
10056;SDS011;5068;51.286;7.518;2022-07-21T04:28:35;4.22;;;3.88;;
10056;SDS011;5068;51.286;7.518;2022-07-21T04:30:09;5.55;;;4.00;;
10056;SDS011;5068;51.286;7.518;2022-07-21T04:31:45;4.50;;;3.83;;
10056;SDS011;5068;51.286;7.518;2022-07-21T04:33:20;4.25;;;3.85;;
10056;SDS011;5068;51.286;7.518;2022-07-21T04:34:54;4.68;;;3.58;;
10056;SDS011;5068;51.286;7.518;2022-07-21T04:36:28;4.22;;;3.92;;
10056;SDS011;5068;51.286;7.518;2022-07-21T04:38:01;4.25;;;3.95;;
10056;SDS011;5068;51.286;7.518;2022-07-21T04:39:35;4.43;;;4.03;;
10056;SDS011;5068;51.286;7.518;2022-07-21T04:41:09;4.57;;;4.28;;
10056;SDS011;5068;51.286;7.518;2022-07-21T04:42:42;5.63;;;3.92;;
10056;SDS011;5068;51.286;7.518;2022-07-21T04:44:17;4.93;;;4.53;;
10056;SDS011;5068;51.286;7.518;2022-07-21T04:45:51;4.97;;;4.57;;
10056;SDS011;5068;51.286;7.518;2022-07-21T04:47:24;4.88;;;4.47;;
10056;SDS011;5068;51.286;7.518;2022-07-21T04:48:59;4.85;;;4.45;;
10056;SDS011;5068;51.286;7.518;2022-07-21T04:50:32;5.13;;;4.63;;
10056;SDS011;5068;51.286;7.518;2022-07-21T04:52:06;5.55;;;5.13;;
10056;SDS011;5068;51.286;7.518;2022-07-21T04:53:38;5.53;;;5.03;;
10056;SDS011;5068;51.286;7.518;2022-07-21T04:55:12;6.05;;;5.55;;
10056;SDS011;5068;51.286;7.518;2022-07-21T04:56:47;6.18;;;5.65;;
10056;SDS011;5068;51.286;7.518;2022-07-21T04:58:20;6.45;;;5.90;;
10056;SDS011;5068;51.286;7.518;2022-07-21T04:59:54;6.03;;;5.53;;
10056;SDS011;5068;51.286;7.518;2022-07-21T05:01:28;5.88;;;5.38;;
10056;SDS011;5068;51.286;7.518;2022-07-21T05:03:02;5.72;;;5.32;;
10056;SDS011;5068;51.286;7.518;2022-07-21T05:04:37;6.15;;;5.65;;
10056;SDS011;5068;51.286;7.518;2022-07-21T05:06:11;6.70;;;6.10;;
10056;SDS011;5068;51.286;7.518;2022-07-21T05:07:45;6.57;;;6.00;;
10056;SDS011;5068;51.286;7.518;2022-07-21T05:09:19;7.10;;;6.53;;
10056;SDS011;5068;51.286;7.518;2022-07-21T05:10:52;6.75;;;6.03;;
10056;SDS011;5068;51.286;7.518;2022-07-21T05:12:26;7.38;;;6.78;;
10056;SDS011;5068;51.286;7.518;2022-07-21T05:14:00;7.35;;;6.60;;
10056;SDS011;5068;51.286;7.518;2022-07-21T05:15:35;6.97;;;6.43;;
10056;SDS011;5068;51.286;7.518;2022-07-21T05:17:09;8.07;;;7.38;;
10056;SDS011;5068;51.286;7.518;2022-07-21T05:18:42;7.82;;;7.13;;
10056;SDS011;5068;51.286;7.518;2022-07-21T05:20:17;7.57;;;6.88;;
10056;SDS011;5068;51.286;7.518;2022-07-21T05:21:51;8.20;;;7.57;;
10056;SDS011;5068;51.286;7.518;2022-07-21T05:23:24;8.65;;;7.95;;
10056;SDS011;5068;51.286;7.518;2022-07-21T05:24:57;9.15;;;8.25;;
10056;SDS011;5068;51.286;7.518;2022-07-21T05:26:31;8.93;;;8.05;;
10056;SDS011;5068;51.286;7.518;2022-07-21T05:28:06;8.93;;;8.23;;
10056;SDS011;5068;51.286;7.518;2022-07-21T05:29:40;10.13;;;9.25;;
10056;SDS011;5068;51.286;7.518;2022-07-21T05:31:13;9.82;;;8.90;;
10056;SDS011;5068;51.286;7.518;2022-07-21T05:32:47;10.05;;;9.13;;
10056;SDS011;5068;51.286;7.518;2022-07-21T05:34:20;10.35;;;9.45;;
10056;SDS011;5068;51.286;7.518;2022-07-21T05:35:55;9.88;;;9.07;;
10056;SDS011;5068;51.286;7.518;2022-07-21T05:37:30;10.20;;;9.40;;
10056;SDS011;5068;51.286;7.518;2022-07-21T05:39:03;10.95;;;10.05;;
10056;SDS011;5068;51.286;7.518;2022-07-21T05:40:36;10.27;;;9.27;;
10056;SDS011;5068;51.286;7.518;2022-07-21T05:42:10;9.93;;;9.13;;
10056;SDS011;5068;51.286;7.518;2022-07-21T05:43:43;10.45;;;9.65;;
10056;SDS011;5068;51.286;7.518;2022-07-21T05:45:17;10.60;;;9.60;;
10056;SDS011;5068;51.286;7.518;2022-07-21T05:46:50;10.02;;;9.23;;
10056;SDS011;5068;51.286;7.518;2022-07-21T05:48:24;11.13;;;10.23;;
10056;SDS011;5068;51.286;7.518;2022-07-21T05:49:58;10.15;;;9.35;;
10056;SDS011;5068;51.286;7.518;2022-07-21T05:51:33;10.10;;;9.27;;
10056;SDS011;5068;51.286;7.518;2022-07-21T05:53:07;9.98;;;9.07;;
10056;SDS011;5068;51.286;7.518;2022-07-21T05:54:41;10.75;;;9.85;;
10056;SDS011;5068;51.286;7.518;2022-07-21T05:56:14;10.50;;;9.70;;
10056;SDS011;5068;51.286;7.518;2022-07-21T05:57:48;10.77;;;9.85;;
10056;SDS011;5068;51.286;7.518;2022-07-21T05:59:21;10.70;;;9.75;;
10056;SDS011;5068;51.286;7.518;2022-07-21T06:00:55;9.98;;;9.13;;
10056;SDS011;5068;51.286;7.518;2022-07-21T06:02:41;10.10;;;9.32;;
10056;SDS011;5068;51.286;7.518;2022-07-21T06:04:15;10.25;;;9.43;;
10056;SDS011;5068;51.286;7.518;2022-07-21T06:05:48;11.45;;;9.77;;
10056;SDS011;5068;51.286;7.518;2022-07-21T06:07:23;9.98;;;9.15;;
10056;SDS011;5068;51.286;7.518;2022-07-21T06:08:58;9.70;;;8.95;;
10056;SDS011;5068;51.286;7.518;2022-07-21T06:10:31;10.07;;;9.13;;
10056;SDS011;5068;51.286;7.518;2022-07-21T06:12:05;10.30;;;9.50;;
10056;SDS011;5068;51.286;7.518;2022-07-21T06:13:39;9.82;;;9.02;;
10056;SDS011;5068;51.286;7.518;2022-07-21T06:15:13;10.07;;;9.27;;
10056;SDS011;5068;51.286;7.518;2022-07-21T06:16:47;9.68;;;8.82;;
10056;SDS011;5068;51.286;7.518;2022-07-21T06:18:21;9.85;;;8.98;;
10056;SDS011;5068;51.286;7.518;2022-07-21T06:19:54;10.05;;;9.25;;
10056;SDS011;5068;51.286;7.518;2022-07-21T06:21:28;10.13;;;9.25;;
10056;SDS011;5068;51.286;7.518;2022-07-21T06:23:04;11.02;;;10.05;;
10056;SDS011;5068;51.286;7.518;2022-07-21T06:24:38;10.77;;;9.75;;
10056;SDS011;5068;51.286;7.518;2022-07-21T06:26:11;9.82;;;8.82;;
10056;SDS011;5068;51.286;7.518;2022-07-21T06:27:45;9.88;;;9.07;;
10056;SDS011;5068;51.286;7.518;2022-07-21T06:29:18;10.65;;;9.65;;
10056;SDS011;5068;51.286;7.518;2022-07-21T06:30:52;10.90;;;9.98;;
10056;SDS011;5068;51.286;7.518;2022-07-21T06:32:26;10.48;;;9.57;;
10056;SDS011;5068;51.286;7.518;2022-07-21T06:34:00;10.27;;;9.38;;
10056;SDS011;5068;51.286;7.518;2022-07-21T06:35:34;9.50;;;8.70;;
10056;SDS011;5068;51.286;7.518;2022-07-21T06:37:07;9.20;;;8.40;;
10056;SDS011;5068;51.286;7.518;2022-07-21T06:38:42;9.10;;;8.30;;
10056;SDS011;5068;51.286;7.518;2022-07-21T06:40:17;9.70;;;8.82;;
10056;SDS011;5068;51.286;7.518;2022-07-21T06:41:50;9.15;;;8.35;;
10056;SDS011;5068;51.286;7.518;2022-07-21T06:43:24;9.52;;;8.52;;
10056;SDS011;5068;51.286;7.518;2022-07-21T06:44:59;9.77;;;8.88;;
10056;SDS011;5068;51.286;7.518;2022-07-21T06:46:33;8.68;;;7.88;;
10056;SDS011;5068;51.286;7.518;2022-07-21T06:48:07;8.27;;;7.57;;
10056;SDS011;5068;51.286;7.518;2022-07-21T06:49:41;8.65;;;7.85;;
10056;SDS011;5068;51.286;7.518;2022-07-21T06:51:15;8.90;;;7.95;;
10056;SDS011;5068;51.286;7.518;2022-07-21T06:52:48;8.70;;;7.63;;
10056;SDS011;5068;51.286;7.518;2022-07-21T06:54:23;8.52;;;7.72;;
10056;SDS011;5068;51.286;7.518;2022-07-21T06:55:57;8.27;;;7.47;;
10056;SDS011;5068;51.286;7.518;2022-07-21T06:57:34;8.35;;;7.63;;
10056;SDS011;5068;51.286;7.518;2022-07-21T06:59:08;8.75;;;7.82;;
10056;SDS011;5068;51.286;7.518;2022-07-21T07:00:42;7.38;;;6.78;;
10056;SDS011;5068;51.286;7.518;2022-07-21T07:02:17;7.93;;;7.22;;
10056;SDS011;5068;51.286;7.518;2022-07-21T07:03:52;7.38;;;6.88;;
10056;SDS011;5068;51.286;7.518;2022-07-21T07:05:25;7.47;;;6.90;;
10056;SDS011;5068;51.286;7.518;2022-07-21T07:07:01;7.25;;;6.28;;
10056;SDS011;5068;51.286;7.518;2022-07-21T07:08:35;7.25;;;6.65;;
10056;SDS011;5068;51.286;7.518;2022-07-21T07:10:16;7.43;;;6.82;;
10056;SDS011;5068;51.286;7.518;2022-07-21T07:11:50;7.30;;;6.63;;
10056;SDS011;5068;51.286;7.518;2022-07-21T07:13:45;6.43;;;5.93;;
10056;SDS011;5068;51.286;7.518;2022-07-21T07:15:32;8.65;;;6.68;;
10056;SDS011;5068;51.286;7.518;2022-07-21T07:17:05;8.82;;;6.53;;
10056;SDS011;5068;51.286;7.518;2022-07-21T07:18:39;7.28;;;6.57;;
10056;SDS011;5068;51.286;7.518;2022-07-21T07:20:12;6.05;;;5.65;;
10056;SDS011;5068;51.286;7.518;2022-07-21T07:21:46;7.00;;;6.35;;
10056;SDS011;5068;51.286;7.518;2022-07-21T07:23:20;7.22;;;6.57;;
10056;SDS011;5068;51.286;7.518;2022-07-21T07:24:53;7.03;;;6.43;;
10056;SDS011;5068;51.286;7.518;2022-07-21T07:26:28;7.07;;;6.47;;
10056;SDS011;5068;51.286;7.518;2022-07-21T07:28:02;9.85;;;7.05;;
10056;SDS011;5068;51.286;7.518;2022-07-21T07:29:36;11.45;;;7.03;;
10056;SDS011;5068;51.286;7.518;2022-07-21T07:31:10;7.90;;;7.18;;
10056;SDS011;5068;51.286;7.518;2022-07-21T07:32:44;7.55;;;6.85;;
10056;SDS011;5068;51.286;7.518;2022-07-21T07:34:19;7.85;;;6.07;;
10056;SDS011;5068;51.286;7.518;2022-07-21T07:35:53;6.65;;;6.05;;
10056;SDS011;5068;51.286;7.518;2022-07-21T07:37:28;6.80;;;6.28;;
10056;SDS011;5068;51.286;7.518;2022-07-21T07:39:02;6.45;;;5.85;;
10056;SDS011;5068;51.286;7.518;2022-07-21T07:40:36;6.60;;;5.90;;
10056;SDS011;5068;51.286;7.518;2022-07-21T07:42:11;6.38;;;5.78;;
10056;SDS011;5068;51.286;7.518;2022-07-21T07:43:45;6.28;;;5.78;;
10056;SDS011;5068;51.286;7.518;2022-07-21T07:45:19;5.88;;;5.47;;
10056;SDS011;5068;51.286;7.518;2022-07-21T07:46:53;5.40;;;5.00;;
10056;SDS011;5068;51.286;7.518;2022-07-21T07:48:27;5.28;;;4.88;;
10056;SDS011;5068;51.286;7.518;2022-07-21T07:50:02;5.75;;;5.15;;
10056;SDS011;5068;51.286;7.518;2022-07-21T07:51:37;5.70;;;5.20;;
10056;SDS011;5068;51.286;7.518;2022-07-21T07:53:11;5.22;;;4.82;;
10056;SDS011;5068;51.286;7.518;2022-07-21T07:54:44;5.18;;;4.78;;
10056;SDS011;5068;51.286;7.518;2022-07-21T07:56:18;5.25;;;4.82;;
10056;SDS011;5068;51.286;7.518;2022-07-21T07:57:53;5.60;;;5.20;;
10056;SDS011;5068;51.286;7.518;2022-07-21T07:59:26;5.05;;;4.65;;
10056;SDS011;5068;51.286;7.518;2022-07-21T08:01:00;4.57;;;4.10;;
10056;SDS011;5068;51.286;7.518;2022-07-21T08:02:39;8.55;;;4.40;;
10056;SDS011;5068;51.286;7.518;2022-07-21T08:04:13;10.25;;;4.72;;
10056;SDS011;5068;51.286;7.518;2022-07-21T08:05:47;4.65;;;4.25;;
10056;SDS011;5068;51.286;7.518;2022-07-21T08:07:20;3.95;;;3.65;;
10056;SDS011;5068;51.286;7.518;2022-07-21T08:08:54;4.30;;;4.00;;
10056;SDS011;5068;51.286;7.518;2022-07-21T08:10:27;3.70;;;3.40;;
10056;SDS011;5068;51.286;7.518;2022-07-21T08:12:17;4.05;;;3.75;;
10056;SDS011;5068;51.286;7.518;2022-07-21T08:13:53;4.80;;;3.72;;
10056;SDS011;5068;51.286;7.518;2022-07-21T08:15:28;4.05;;;3.65;;
10056;SDS011;5068;51.286;7.518;2022-07-21T08:17:02;3.60;;;3.30;;
10056;SDS011;5068;51.286;7.518;2022-07-21T08:18:35;4.13;;;3.83;;
10056;SDS011;5068;51.286;7.518;2022-07-21T08:20:10;4.25;;;3.60;;
10056;SDS011;5068;51.286;7.518;2022-07-21T08:21:44;3.58;;;3.35;;
10056;SDS011;5068;51.286;7.518;2022-07-21T08:23:37;3.78;;;3.40;;
10056;SDS011;5068;51.286;7.518;2022-07-21T08:25:11;3.70;;;3.40;;
10056;SDS011;5068;51.286;7.518;2022-07-21T08:26:44;3.50;;;3.15;;
10056;SDS011;5068;51.286;7.518;2022-07-21T08:28:18;3.78;;;3.47;;
10056;SDS011;5068;51.286;7.518;2022-07-21T08:29:52;7.88;;;3.92;;
10056;SDS011;5068;51.286;7.518;2022-07-21T08:31:27;4.05;;;3.20;;
10056;SDS011;5068;51.286;7.518;2022-07-21T08:33:00;4.05;;;2.90;;
10056;SDS011;5068;51.286;7.518;2022-07-21T08:34:35;3.70;;;3.20;;
10056;SDS011;5068;51.286;7.518;2022-07-21T08:36:09;3.58;;;3.28;;
10056;SDS011;5068;51.286;7.518;2022-07-21T08:37:51;3.63;;;2.70;;
10056;SDS011;5068;51.286;7.518;2022-07-21T08:39:27;3.80;;;3.00;;
10056;SDS011;5068;51.286;7.518;2022-07-21T08:41:01;3.28;;;2.97;;
10056;SDS011;5068;51.286;7.518;2022-07-21T08:42:35;2.92;;;2.60;;
10056;SDS011;5068;51.286;7.518;2022-07-21T08:44:09;2.55;;;2.38;;
10056;SDS011;5068;51.286;7.518;2022-07-21T08:45:44;2.85;;;2.65;;
10056;SDS011;5068;51.286;7.518;2022-07-21T08:47:18;3.05;;;2.55;;
10056;SDS011;5068;51.286;7.518;2022-07-21T08:48:53;3.50;;;2.53;;
10056;SDS011;5068;51.286;7.518;2022-07-21T08:50:29;2.60;;;2.40;;
10056;SDS011;5068;51.286;7.518;2022-07-21T08:52:06;2.83;;;2.63;;
10056;SDS011;5068;51.286;7.518;2022-07-21T08:53:39;2.83;;;2.50;;
10056;SDS011;5068;51.286;7.518;2022-07-21T08:55:16;2.85;;;2.63;;
10056;SDS011;5068;51.286;7.518;2022-07-21T08:56:49;2.70;;;2.50;;
10056;SDS011;5068;51.286;7.518;2022-07-21T08:58:23;2.75;;;2.55;;
10056;SDS011;5068;51.286;7.518;2022-07-21T08:59:57;3.00;;;2.80;;
10056;SDS011;5068;51.286;7.518;2022-07-21T09:01:32;3.28;;;2.83;;
10056;SDS011;5068;51.286;7.518;2022-07-21T09:03:13;2.40;;;2.30;;
10056;SDS011;5068;51.286;7.518;2022-07-21T09:04:51;3.78;;;2.67;;
10056;SDS011;5068;51.286;7.518;2022-07-21T09:06:26;2.50;;;2.35;;
10056;SDS011;5068;51.286;7.518;2022-07-21T09:07:59;2.70;;;2.50;;
10056;SDS011;5068;51.286;7.518;2022-07-21T09:09:33;2.30;;;2.20;;
10056;SDS011;5068;51.286;7.518;2022-07-21T09:11:16;2.70;;;2.50;;
10056;SDS011;5068;51.286;7.518;2022-07-21T09:12:53;3.03;;;2.67;;
10056;SDS011;5068;51.286;7.518;2022-07-21T09:14:29;2.85;;;2.30;;
10056;SDS011;5068;51.286;7.518;2022-07-21T09:16:04;2.55;;;2.35;;
10056;SDS011;5068;51.286;7.518;2022-07-21T09:17:40;3.28;;;2.30;;
10056;SDS011;5068;51.286;7.518;2022-07-21T09:19:34;2.70;;;2.50;;
10056;SDS011;5068;51.286;7.518;2022-07-21T09:21:12;2.47;;;2.28;;
10056;SDS011;5068;51.286;7.518;2022-07-21T09:23:06;3.85;;;2.60;;
10056;SDS011;5068;51.286;7.518;2022-07-21T09:24:43;1.95;;;1.85;;
10056;SDS011;5068;51.286;7.518;2022-07-21T09:26:22;2.25;;;2.05;;
10056;SDS011;5068;51.286;7.518;2022-07-21T09:28:05;2.22;;;2.00;;
10056;SDS011;5068;51.286;7.518;2022-07-21T09:29:48;2.00;;;1.80;;
10056;SDS011;5068;51.286;7.518;2022-07-21T09:31:25;2.97;;;2.13;;
10056;SDS011;5068;51.286;7.518;2022-07-21T09:33:01;1.95;;;1.75;;
10056;SDS011;5068;51.286;7.518;2022-07-21T09:34:53;1.70;;;1.50;;
10056;SDS011;5068;51.286;7.518;2022-07-21T09:36:37;2.30;;;1.60;;
10056;SDS011;5068;51.286;7.518;2022-07-21T09:38:12;2.30;;;2.10;;
10056;SDS011;5068;51.286;7.518;2022-07-21T09:39:47;1.85;;;1.70;;